sensor_id;sensor_type;location;lat;lon;timestamp;P1;durP1;ratioP1;P2;durP2;ratioP2
63965;SDS011;50151;52.030;5.350;2023-03-01T00:00:00;11.02;;;5.97;;
63965;SDS011;50151;52.030;5.350;2023-03-01T00:02:27;10.50;;;6.15;;
63965;SDS011;50151;52.030;5.350;2023-03-01T00:04:53;7.57;;;5.55;;
63965;SDS011;50151;52.030;5.350;2023-03-01T00:07:20;9.88;;;5.75;;
63965;SDS011;50151;52.030;5.350;2023-03-01T00:09:47;10.15;;;5.75;;
63965;SDS011;50151;52.030;5.350;2023-03-01T00:12:13;9.15;;;5.70;;
63965;SDS011;50151;52.030;5.350;2023-03-01T00:14:40;8.88;;;5.60;;
63965;SDS011;50151;52.030;5.350;2023-03-01T00:17:07;9.25;;;5.50;;
63965;SDS011;50151;52.030;5.350;2023-03-01T00:19:34;7.10;;;4.88;;
63965;SDS011;50151;52.030;5.350;2023-03-01T00:22:01;9.60;;;5.80;;
63965;SDS011;50151;52.030;5.350;2023-03-01T00:24:27;8.98;;;5.47;;
63965;SDS011;50151;52.030;5.350;2023-03-01T00:26:54;8.07;;;5.10;;
63965;SDS011;50151;52.030;5.350;2023-03-01T00:29:24;8.05;;;5.20;;
63965;SDS011;50151;52.030;5.350;2023-03-01T00:31:51;8.25;;;5.03;;
63965;SDS011;50151;52.030;5.350;2023-03-01T00:34:18;9.68;;;5.60;;
63965;SDS011;50151;52.030;5.350;2023-03-01T00:36:45;9.02;;;5.13;;
63965;SDS011;50151;52.030;5.350;2023-03-01T00:39:13;10.38;;;5.47;;
63965;SDS011;50151;52.030;5.350;2023-03-01T00:41:41;7.65;;;5.07;;
63965;SDS011;50151;52.030;5.350;2023-03-01T00:44:08;8.70;;;5.65;;
63965;SDS011;50151;52.030;5.350;2023-03-01T00:46:35;8.02;;;5.50;;
63965;SDS011;50151;52.030;5.350;2023-03-01T00:49:02;7.90;;;5.38;;
63965;SDS011;50151;52.030;5.350;2023-03-01T00:51:30;8.25;;;5.57;;
63965;SDS011;50151;52.030;5.350;2023-03-01T00:53:59;9.02;;;5.60;;
63965;SDS011;50151;52.030;5.350;2023-03-01T00:56:27;9.25;;;5.30;;
63965;SDS011;50151;52.030;5.350;2023-03-01T00:58:54;8.90;;;5.22;;
63965;SDS011;50151;52.030;5.350;2023-03-01T01:01:23;6.47;;;4.90;;
63965;SDS011;50151;52.030;5.350;2023-03-01T01:03:55;7.32;;;4.47;;
63965;SDS011;50151;52.030;5.350;2023-03-01T01:06:24;13.48;;;5.80;;
63965;SDS011;50151;52.030;5.350;2023-03-01T01:08:54;11.80;;;6.07;;
63965;SDS011;50151;52.030;5.350;2023-03-01T01:11:21;10.63;;;6.50;;
63965;SDS011;50151;52.030;5.350;2023-03-01T01:13:49;11.15;;;6.10;;
63965;SDS011;50151;52.030;5.350;2023-03-01T01:16:17;10.98;;;6.68;;
63965;SDS011;50151;52.030;5.350;2023-03-01T01:18:45;12.18;;;6.43;;
63965;SDS011;50151;52.030;5.350;2023-03-01T01:21:13;10.27;;;6.80;;
63965;SDS011;50151;52.030;5.350;2023-03-01T01:23:41;13.65;;;7.47;;
63965;SDS011;50151;52.030;5.350;2023-03-01T01:26:11;12.75;;;7.68;;
63965;SDS011;50151;52.030;5.350;2023-03-01T01:28:40;14.93;;;7.88;;
63965;SDS011;50151;52.030;5.350;2023-03-01T01:31:07;13.43;;;7.13;;
63965;SDS011;50151;52.030;5.350;2023-03-01T01:33:34;11.32;;;7.28;;
63965;SDS011;50151;52.030;5.350;2023-03-01T01:36:01;13.60;;;7.68;;
63965;SDS011;50151;52.030;5.350;2023-03-01T01:38:28;11.68;;;7.88;;
63965;SDS011;50151;52.030;5.350;2023-03-01T01:40:54;12.95;;;8.02;;
63965;SDS011;50151;52.030;5.350;2023-03-01T01:43:26;14.77;;;8.10;;
63965;SDS011;50151;52.030;5.350;2023-03-01T01:45:55;14.98;;;7.88;;
63965;SDS011;50151;52.030;5.350;2023-03-01T01:48:27;14.57;;;7.80;;
63965;SDS011;50151;52.030;5.350;2023-03-01T01:51:07;11.48;;;7.78;;
63965;SDS011;50151;52.030;5.350;2023-03-01T01:53:37;11.82;;;8.07;;
63965;SDS011;50151;52.030;5.350;2023-03-01T01:56:06;19.73;;;8.07;;
63965;SDS011;50151;52.030;5.350;2023-03-01T01:58:35;10.23;;;7.20;;
63965;SDS011;50151;52.030;5.350;2023-03-01T02:01:03;13.32;;;8.05;;
63965;SDS011;50151;52.030;5.350;2023-03-01T02:03:31;14.13;;;7.75;;
63965;SDS011;50151;52.030;5.350;2023-03-01T02:06:04;11.70;;;7.55;;
63965;SDS011;50151;52.030;5.350;2023-03-01T02:08:40;15.02;;;7.68;;
63965;SDS011;50151;52.030;5.350;2023-03-01T02:11:08;15.68;;;7.95;;
63965;SDS011;50151;52.030;5.350;2023-03-01T02:13:37;13.30;;;7.78;;
63965;SDS011;50151;52.030;5.350;2023-03-01T02:16:05;14.05;;;8.57;;
63965;SDS011;50151;52.030;5.350;2023-03-01T02:18:35;14.38;;;7.85;;
63965;SDS011;50151;52.030;5.350;2023-03-01T02:21:06;12.65;;;8.38;;
63965;SDS011;50151;52.030;5.350;2023-03-01T02:23:50;12.88;;;8.25;;
63965;SDS011;50151;52.030;5.350;2023-03-01T02:28:57;12.57;;;8.43;;
63965;SDS011;50151;52.030;5.350;2023-03-01T02:31:24;13.88;;;8.68;;
63965;SDS011;50151;52.030;5.350;2023-03-01T02:36:45;13.05;;;8.40;;
63965;SDS011;50151;52.030;5.350;2023-03-01T02:39:25;11.85;;;8.45;;
63965;SDS011;50151;52.030;5.350;2023-03-01T02:41:56;14.20;;;8.73;;
63965;SDS011;50151;52.030;5.350;2023-03-01T02:44:24;16.27;;;8.65;;
63965;SDS011;50151;52.030;5.350;2023-03-01T02:46:53;13.90;;;8.25;;
63965;SDS011;50151;52.030;5.350;2023-03-01T02:49:26;18.63;;;8.65;;
63965;SDS011;50151;52.030;5.350;2023-03-01T02:52:04;13.07;;;8.38;;
63965;SDS011;50151;52.030;5.350;2023-03-01T02:54:36;13.05;;;8.00;;
63965;SDS011;50151;52.030;5.350;2023-03-01T02:57:10;12.70;;;8.45;;
63965;SDS011;50151;52.030;5.350;2023-03-01T02:59:38;11.55;;;7.68;;
63965;SDS011;50151;52.030;5.350;2023-03-01T03:02:07;13.05;;;8.10;;
63965;SDS011;50151;52.030;5.350;2023-03-01T03:05:08;11.35;;;7.63;;
63965;SDS011;50151;52.030;5.350;2023-03-01T03:07:37;12.55;;;8.07;;
63965;SDS011;50151;52.030;5.350;2023-03-01T03:10:07;13.45;;;7.95;;
63965;SDS011;50151;52.030;5.350;2023-03-01T03:12:38;12.25;;;8.25;;
63965;SDS011;50151;52.030;5.350;2023-03-01T03:15:06;11.35;;;7.68;;
63965;SDS011;50151;52.030;5.350;2023-03-01T03:17:36;12.15;;;8.23;;
63965;SDS011;50151;52.030;5.350;2023-03-01T03:20:03;12.73;;;8.13;;
63965;SDS011;50151;52.030;5.350;2023-03-01T03:22:32;15.38;;;8.88;;
63965;SDS011;50151;52.030;5.350;2023-03-01T03:25:00;14.82;;;8.90;;
63965;SDS011;50151;52.030;5.350;2023-03-01T03:27:27;16.75;;;9.05;;
63965;SDS011;50151;52.030;5.350;2023-03-01T03:29:54;12.90;;;8.68;;
63965;SDS011;50151;52.030;5.350;2023-03-01T03:32:21;14.02;;;8.63;;
63965;SDS011;50151;52.030;5.350;2023-03-01T03:34:47;13.02;;;7.75;;
63965;SDS011;50151;52.030;5.350;2023-03-01T03:37:15;11.80;;;8.30;;
63965;SDS011;50151;52.030;5.350;2023-03-01T03:40:00;16.23;;;8.45;;
63965;SDS011;50151;52.030;5.350;2023-03-01T03:42:27;13.55;;;8.25;;
63965;SDS011;50151;52.030;5.350;2023-03-01T03:44:54;12.63;;;7.82;;
63965;SDS011;50151;52.030;5.350;2023-03-01T03:47:20;14.68;;;8.45;;
63965;SDS011;50151;52.030;5.350;2023-03-01T03:49:47;12.88;;;7.93;;
63965;SDS011;50151;52.030;5.350;2023-03-01T03:52:13;15.30;;;9.00;;
63965;SDS011;50151;52.030;5.350;2023-03-01T03:54:40;14.18;;;7.95;;
63965;SDS011;50151;52.030;5.350;2023-03-01T03:57:07;12.70;;;8.32;;
63965;SDS011;50151;52.030;5.350;2023-03-01T03:59:33;16.17;;;8.68;;
63965;SDS011;50151;52.030;5.350;2023-03-01T04:02:00;12.90;;;8.48;;
63965;SDS011;50151;52.030;5.350;2023-03-01T04:04:27;13.05;;;8.73;;
63965;SDS011;50151;52.030;5.350;2023-03-01T04:06:53;12.35;;;8.18;;
63965;SDS011;50151;52.030;5.350;2023-03-01T04:09:20;11.50;;;8.20;;
63965;SDS011;50151;52.030;5.350;2023-03-01T04:11:46;13.77;;;8.55;;
63965;SDS011;50151;52.030;5.350;2023-03-01T04:14:13;12.88;;;8.60;;
63965;SDS011;50151;52.030;5.350;2023-03-01T04:16:40;11.77;;;8.18;;
63965;SDS011;50151;52.030;5.350;2023-03-01T04:19:07;12.73;;;8.60;;
63965;SDS011;50151;52.030;5.350;2023-03-01T04:21:35;13.77;;;8.35;;
63965;SDS011;50151;52.030;5.350;2023-03-01T04:24:02;14.52;;;8.93;;
63965;SDS011;50151;52.030;5.350;2023-03-01T04:26:29;12.07;;;8.27;;
63965;SDS011;50151;52.030;5.350;2023-03-01T04:28:56;15.55;;;8.82;;
63965;SDS011;50151;52.030;5.350;2023-03-01T04:31:23;15.00;;;9.07;;
63965;SDS011;50151;52.030;5.350;2023-03-01T04:33:51;12.27;;;8.95;;
63965;SDS011;50151;52.030;5.350;2023-03-01T04:36:19;14.02;;;8.65;;
63965;SDS011;50151;52.030;5.350;2023-03-01T04:38:48;12.48;;;8.40;;
63965;SDS011;50151;52.030;5.350;2023-03-01T04:41:16;15.88;;;8.20;;
63965;SDS011;50151;52.030;5.350;2023-03-01T04:43:45;13.32;;;8.13;;
63965;SDS011;50151;52.030;5.350;2023-03-01T04:46:13;11.55;;;7.60;;
63965;SDS011;50151;52.030;5.350;2023-03-01T04:48:42;17.05;;;7.53;;
63965;SDS011;50151;52.030;5.350;2023-03-01T04:51:10;13.15;;;7.82;;
63965;SDS011;50151;52.030;5.350;2023-03-01T04:53:42;14.55;;;7.68;;
63965;SDS011;50151;52.030;5.350;2023-03-01T04:56:10;11.63;;;7.22;;
63965;SDS011;50151;52.030;5.350;2023-03-01T04:58:37;12.25;;;7.72;;
63965;SDS011;50151;52.030;5.350;2023-03-01T05:01:14;13.35;;;7.90;;
63965;SDS011;50151;52.030;5.350;2023-03-01T05:03:44;13.35;;;8.30;;
63965;SDS011;50151;52.030;5.350;2023-03-01T05:06:12;14.35;;;7.63;;
63965;SDS011;50151;52.030;5.350;2023-03-01T05:08:39;15.98;;;8.13;;
63965;SDS011;50151;52.030;5.350;2023-03-01T05:11:07;12.80;;;7.60;;
63965;SDS011;50151;52.030;5.350;2023-03-01T05:13:35;14.25;;;8.07;;
63965;SDS011;50151;52.030;5.350;2023-03-01T05:16:04;10.60;;;7.13;;
63965;SDS011;50151;52.030;5.350;2023-03-01T05:18:33;13.98;;;6.95;;
63965;SDS011;50151;52.030;5.350;2023-03-01T05:21:05;10.25;;;7.00;;
63965;SDS011;50151;52.030;5.350;2023-03-01T05:23:34;13.20;;;7.43;;
63965;SDS011;50151;52.030;5.350;2023-03-01T05:26:01;14.25;;;7.45;;
63965;SDS011;50151;52.030;5.350;2023-03-01T05:28:31;11.13;;;6.43;;
63965;SDS011;50151;52.030;5.350;2023-03-01T05:30:58;10.35;;;6.40;;
63965;SDS011;50151;52.030;5.350;2023-03-01T05:33:26;10.93;;;6.93;;
63965;SDS011;50151;52.030;5.350;2023-03-01T05:35:53;13.75;;;7.10;;
63965;SDS011;50151;52.030;5.350;2023-03-01T05:38:20;11.57;;;6.68;;
63965;SDS011;50151;52.030;5.350;2023-03-01T05:40:48;11.10;;;6.68;;
63965;SDS011;50151;52.030;5.350;2023-03-01T05:43:16;8.90;;;6.32;;
63965;SDS011;50151;52.030;5.350;2023-03-01T05:45:44;12.50;;;7.70;;
63965;SDS011;50151;52.030;5.350;2023-03-01T05:48:11;12.45;;;7.30;;
63965;SDS011;50151;52.030;5.350;2023-03-01T05:50:43;11.20;;;6.85;;
63965;SDS011;50151;52.030;5.350;2023-03-01T05:53:14;9.65;;;6.38;;
63965;SDS011;50151;52.030;5.350;2023-03-01T05:55:43;11.23;;;7.43;;
63965;SDS011;50151;52.030;5.350;2023-03-01T05:58:12;11.85;;;7.30;;
63965;SDS011;50151;52.030;5.350;2023-03-01T06:00:41;11.25;;;6.68;;
63965;SDS011;50151;52.030;5.350;2023-03-01T06:03:10;15.38;;;7.18;;
63965;SDS011;50151;52.030;5.350;2023-03-01T06:05:37;9.88;;;6.40;;
63965;SDS011;50151;52.030;5.350;2023-03-01T06:08:05;8.95;;;6.38;;
63965;SDS011;50151;52.030;5.350;2023-03-01T06:10:32;20.15;;;7.05;;
63965;SDS011;50151;52.030;5.350;2023-03-01T06:12:59;9.85;;;6.47;;
63965;SDS011;50151;52.030;5.350;2023-03-01T06:15:26;11.30;;;6.75;;
63965;SDS011;50151;52.030;5.350;2023-03-01T06:17:53;9.18;;;6.10;;
63965;SDS011;50151;52.030;5.350;2023-03-01T06:20:25;14.57;;;6.90;;
63965;SDS011;50151;52.030;5.350;2023-03-01T06:22:54;9.02;;;6.50;;
63965;SDS011;50151;52.030;5.350;2023-03-01T06:25:22;9.93;;;6.60;;
63965;SDS011;50151;52.030;5.350;2023-03-01T06:27:50;10.38;;;6.57;;
63965;SDS011;50151;52.030;5.350;2023-03-01T06:30:19;10.00;;;6.72;;
63965;SDS011;50151;52.030;5.350;2023-03-01T06:32:47;11.95;;;6.93;;
63965;SDS011;50151;52.030;5.350;2023-03-01T06:35:15;11.27;;;6.50;;
63965;SDS011;50151;52.030;5.350;2023-03-01T06:37:46;12.57;;;6.38;;
63965;SDS011;50151;52.030;5.350;2023-03-01T06:40:14;8.93;;;6.47;;
63965;SDS011;50151;52.030;5.350;2023-03-01T06:42:42;10.27;;;6.25;;
63965;SDS011;50151;52.030;5.350;2023-03-01T06:45:13;11.55;;;6.55;;
63965;SDS011;50151;52.030;5.350;2023-03-01T06:47:39;10.63;;;6.40;;
63965;SDS011;50151;52.030;5.350;2023-03-01T06:50:06;10.07;;;6.20;;
63965;SDS011;50151;52.030;5.350;2023-03-01T06:52:34;10.27;;;6.65;;
63965;SDS011;50151;52.030;5.350;2023-03-01T06:55:00;11.40;;;6.47;;
63965;SDS011;50151;52.030;5.350;2023-03-01T06:57:27;11.07;;;6.38;;
63965;SDS011;50151;52.030;5.350;2023-03-01T06:59:54;8.80;;;6.38;;
63965;SDS011;50151;52.030;5.350;2023-03-01T07:02:21;10.88;;;6.07;;
63965;SDS011;50151;52.030;5.350;2023-03-01T07:04:49;10.90;;;6.65;;
63965;SDS011;50151;52.030;5.350;2023-03-01T07:07:16;12.13;;;6.57;;
63965;SDS011;50151;52.030;5.350;2023-03-01T07:09:44;12.25;;;6.70;;
63965;SDS011;50151;52.030;5.350;2023-03-01T07:12:11;13.00;;;6.60;;
63965;SDS011;50151;52.030;5.350;2023-03-01T07:14:38;9.45;;;6.38;;
63965;SDS011;50151;52.030;5.350;2023-03-01T07:17:05;9.88;;;6.80;;
63965;SDS011;50151;52.030;5.350;2023-03-01T07:19:32;13.25;;;6.82;;
63965;SDS011;50151;52.030;5.350;2023-03-01T07:21:59;16.27;;;7.13;;
63965;SDS011;50151;52.030;5.350;2023-03-01T07:24:26;12.63;;;7.43;;
63965;SDS011;50151;52.030;5.350;2023-03-01T07:26:53;10.32;;;6.63;;
63965;SDS011;50151;52.030;5.350;2023-03-01T07:29:20;10.50;;;7.05;;
63965;SDS011;50151;52.030;5.350;2023-03-01T07:31:46;11.10;;;6.97;;
63965;SDS011;50151;52.030;5.350;2023-03-01T07:34:13;11.25;;;7.10;;
63965;SDS011;50151;52.030;5.350;2023-03-01T07:36:40;16.92;;;7.18;;
63965;SDS011;50151;52.030;5.350;2023-03-01T07:39:09;15.05;;;7.07;;
63965;SDS011;50151;52.030;5.350;2023-03-01T07:41:37;9.45;;;6.25;;
63965;SDS011;50151;52.030;5.350;2023-03-01T07:44:04;9.95;;;6.25;;
63965;SDS011;50151;52.030;5.350;2023-03-01T07:46:30;9.00;;;5.95;;
63965;SDS011;50151;52.030;5.350;2023-03-01T07:48:58;10.00;;;6.93;;
63965;SDS011;50151;52.030;5.350;2023-03-01T07:51:24;10.63;;;6.28;;
63965;SDS011;50151;52.030;5.350;2023-03-01T07:53:51;14.32;;;7.15;;
63965;SDS011;50151;52.030;5.350;2023-03-01T07:56:18;12.75;;;6.43;;
63965;SDS011;50151;52.030;5.350;2023-03-01T07:58:45;9.93;;;6.55;;
63965;SDS011;50151;52.030;5.350;2023-03-01T08:01:16;10.32;;;6.47;;
63965;SDS011;50151;52.030;5.350;2023-03-01T08:03:44;9.43;;;6.18;;
63965;SDS011;50151;52.030;5.350;2023-03-01T08:06:12;8.93;;;5.70;;
63965;SDS011;50151;52.030;5.350;2023-03-01T08:08:40;11.80;;;6.47;;
63965;SDS011;50151;52.030;5.350;2023-03-01T08:11:08;10.10;;;5.78;;
63965;SDS011;50151;52.030;5.350;2023-03-01T08:13:37;11.85;;;5.97;;
63965;SDS011;50151;52.030;5.350;2023-03-01T08:16:09;13.13;;;6.20;;
63965;SDS011;50151;52.030;5.350;2023-03-01T08:18:38;8.75;;;6.05;;
63965;SDS011;50151;52.030;5.350;2023-03-01T08:21:09;7.93;;;5.40;;
63965;SDS011;50151;52.030;5.350;2023-03-01T08:23:37;10.55;;;5.90;;
63965;SDS011;50151;52.030;5.350;2023-03-01T08:26:12;9.15;;;5.63;;
63965;SDS011;50151;52.030;5.350;2023-03-01T08:28:45;10.85;;;5.38;;
63965;SDS011;50151;52.030;5.350;2023-03-01T08:31:17;10.60;;;5.82;;
63965;SDS011;50151;52.030;5.350;2023-03-01T08:33:46;8.68;;;5.68;;
63965;SDS011;50151;52.030;5.350;2023-03-01T08:36:17;10.25;;;5.70;;
63965;SDS011;50151;52.030;5.350;2023-03-01T08:38:44;9.73;;;5.63;;
63965;SDS011;50151;52.030;5.350;2023-03-01T08:41:11;7.80;;;5.28;;
63965;SDS011;50151;52.030;5.350;2023-03-01T08:43:38;10.50;;;5.55;;
63965;SDS011;50151;52.030;5.350;2023-03-01T08:46:05;10.38;;;6.10;;
63965;SDS011;50151;52.030;5.350;2023-03-01T08:48:32;11.52;;;5.90;;
63965;SDS011;50151;52.030;5.350;2023-03-01T08:51:12;10.55;;;6.03;;
63965;SDS011;50151;52.030;5.350;2023-03-01T08:53:41;9.80;;;5.60;;
63965;SDS011;50151;52.030;5.350;2023-03-01T08:56:08;9.13;;;5.43;;
63965;SDS011;50151;52.030;5.350;2023-03-01T08:58:36;9.18;;;5.47;;
63965;SDS011;50151;52.030;5.350;2023-03-01T09:01:10;7.45;;;5.45;;
63965;SDS011;50151;52.030;5.350;2023-03-01T09:03:38;10.60;;;5.60;;
63965;SDS011;50151;52.030;5.350;2023-03-01T09:06:05;12.77;;;6.55;;
63965;SDS011;50151;52.030;5.350;2023-03-01T09:08:37;11.32;;;6.05;;
63965;SDS011;50151;52.030;5.350;2023-03-01T09:11:07;10.02;;;6.55;;
63965;SDS011;50151;52.030;5.350;2023-03-01T09:13:36;10.65;;;5.82;;
63965;SDS011;50151;52.030;5.350;2023-03-01T09:16:03;10.57;;;5.70;;
63965;SDS011;50151;52.030;5.350;2023-03-01T09:18:31;8.60;;;5.20;;
63965;SDS011;50151;52.030;5.350;2023-03-01T09:26:31;9.23;;;5.32;;
63965;SDS011;50151;52.030;5.350;2023-03-01T09:28:58;8.73;;;5.47;;
63965;SDS011;50151;52.030;5.350;2023-03-01T09:31:25;10.68;;;5.38;;
63965;SDS011;50151;52.030;5.350;2023-03-01T09:33:52;11.65;;;6.25;;
63965;SDS011;50151;52.030;5.350;2023-03-01T09:36:20;9.38;;;5.32;;
63965;SDS011;50151;52.030;5.350;2023-03-01T09:38:49;7.78;;;5.15;;
63965;SDS011;50151;52.030;5.350;2023-03-01T09:44:00;7.78;;;4.35;;
63965;SDS011;50151;52.030;5.350;2023-03-01T09:46:38;9.05;;;5.47;;
63965;SDS011;50151;52.030;5.350;2023-03-01T09:49:10;7.07;;;4.95;;
63965;SDS011;50151;52.030;5.350;2023-03-01T09:51:50;7.05;;;4.45;;
63965;SDS011;50151;52.030;5.350;2023-03-01T09:54:26;7.35;;;4.40;;
63965;SDS011;50151;52.030;5.350;2023-03-01T09:56:56;12.52;;;4.72;;
63965;SDS011;50151;52.030;5.350;2023-03-01T09:59:47;7.78;;;4.00;;
63965;SDS011;50151;52.030;5.350;2023-03-01T10:10:59;7.25;;;4.15;;
63965;SDS011;50151;52.030;5.350;2023-03-01T10:13:35;11.32;;;4.78;;
63965;SDS011;50151;52.030;5.350;2023-03-01T10:16:15;6.32;;;4.35;;
63965;SDS011;50151;52.030;5.350;2023-03-01T10:18:47;5.18;;;3.97;;
63965;SDS011;50151;52.030;5.350;2023-03-01T10:21:20;9.40;;;4.40;;
63965;SDS011;50151;52.030;5.350;2023-03-01T10:23:49;9.30;;;4.03;;
63965;SDS011;50151;52.030;5.350;2023-03-01T10:29:10;5.30;;;3.08;;
63965;SDS011;50151;52.030;5.350;2023-03-01T10:31:46;7.65;;;4.30;;
63965;SDS011;50151;52.030;5.350;2023-03-01T10:34:18;6.63;;;4.10;;
63965;SDS011;50151;52.030;5.350;2023-03-01T10:36:50;8.07;;;4.63;;
63965;SDS011;50151;52.030;5.350;2023-03-01T10:39:20;8.20;;;5.22;;
63965;SDS011;50151;52.030;5.350;2023-03-01T10:41:59;7.03;;;4.50;;
63965;SDS011;50151;52.030;5.350;2023-03-01T10:44:40;7.40;;;3.88;;
63965;SDS011;50151;52.030;5.350;2023-03-01T10:47:13;6.72;;;3.85;;
63965;SDS011;50151;52.030;5.350;2023-03-01T10:49:51;8.48;;;4.38;;
63965;SDS011;50151;52.030;5.350;2023-03-01T10:52:25;3.97;;;2.80;;
63965;SDS011;50151;52.030;5.350;2023-03-01T10:55:01;5.75;;;3.58;;
63965;SDS011;50151;52.030;5.350;2023-03-01T10:57:48;6.95;;;3.92;;
63965;SDS011;50151;52.030;5.350;2023-03-01T11:05:25;5.78;;;3.67;;
63965;SDS011;50151;52.030;5.350;2023-03-01T11:07:56;8.25;;;4.00;;
63965;SDS011;50151;52.030;5.350;2023-03-01T11:10:29;7.50;;;3.63;;
63965;SDS011;50151;52.030;5.350;2023-03-01T11:13:14;7.90;;;2.65;;
63965;SDS011;50151;52.030;5.350;2023-03-01T11:15:58;4.82;;;2.33;;
63965;SDS011;50151;52.030;5.350;2023-03-01T11:18:30;6.45;;;3.33;;
63965;SDS011;50151;52.030;5.350;2023-03-01T11:21:12;9.88;;;3.30;;
63965;SDS011;50151;52.030;5.350;2023-03-01T11:23:39;5.18;;;2.90;;
63965;SDS011;50151;52.030;5.350;2023-03-01T11:26:08;5.18;;;3.20;;
63965;SDS011;50151;52.030;5.350;2023-03-01T11:28:38;4.68;;;2.30;;
63965;SDS011;50151;52.030;5.350;2023-03-01T11:31:08;9.27;;;3.45;;
63965;SDS011;50151;52.030;5.350;2023-03-01T11:33:43;6.03;;;2.95;;
63965;SDS011;50151;52.030;5.350;2023-03-01T11:39:17;7.10;;;2.92;;
63965;SDS011;50151;52.030;5.350;2023-03-01T11:42:34;6.22;;;3.05;;
63965;SDS011;50151;52.030;5.350;2023-03-01T11:44:54;6.90;;;2.92;;
63965;SDS011;50151;52.030;5.350;2023-03-01T11:50:35;5.43;;;3.28;;
63965;SDS011;50151;52.030;5.350;2023-03-01T11:55:51;6.35;;;3.40;;
63965;SDS011;50151;52.030;5.350;2023-03-01T12:01:40;5.25;;;3.00;;
63965;SDS011;50151;52.030;5.350;2023-03-01T12:22:22;6.83;;;3.50;;
63965;SDS011;50151;52.030;5.350;2023-03-01T12:45:26;6.80;;;3.67;;
63965;SDS011;50151;52.030;5.350;2023-03-01T12:50:52;6.50;;;3.22;;
63965;SDS011;50151;52.030;5.350;2023-03-01T12:55:55;5.63;;;3.40;;
63965;SDS011;50151;52.030;5.350;2023-03-01T13:04:20;7.72;;;3.42;;
63965;SDS011;50151;52.030;5.350;2023-03-01T13:07:11;6.72;;;3.63;;
63965;SDS011;50151;52.030;5.350;2023-03-01T13:17:49;7.80;;;3.80;;
63965;SDS011;50151;52.030;5.350;2023-03-01T13:20:19;7.20;;;3.92;;
63965;SDS011;50151;52.030;5.350;2023-03-01T13:22:49;6.35;;;4.00;;
63965;SDS011;50151;52.030;5.350;2023-03-01T13:25:27;22.48;;;4.78;;
63965;SDS011;50151;52.030;5.350;2023-03-01T13:30:58;5.85;;;3.55;;
63965;SDS011;50151;52.030;5.350;2023-03-01T13:35:55;11.00;;;3.70;;
63965;SDS011;50151;52.030;5.350;2023-03-01T13:49:50;7.55;;;3.75;;
63965;SDS011;50151;52.030;5.350;2023-03-01T13:55:44;6.43;;;3.72;;
63965;SDS011;50151;52.030;5.350;2023-03-01T14:01:04;6.75;;;2.92;;
63965;SDS011;50151;52.030;5.350;2023-03-01T14:03:34;7.95;;;3.40;;
63965;SDS011;50151;52.030;5.350;2023-03-01T14:06:12;7.88;;;3.55;;
63965;SDS011;50151;52.030;5.350;2023-03-01T14:08:47;8.05;;;3.90;;
63965;SDS011;50151;52.030;5.350;2023-03-01T14:19:29;5.22;;;3.50;;
63965;SDS011;50151;52.030;5.350;2023-03-01T14:24:49;6.68;;;3.58;;
63965;SDS011;50151;52.030;5.350;2023-03-01T14:27:18;5.25;;;3.47;;
63965;SDS011;50151;52.030;5.350;2023-03-01T14:29:59;8.98;;;3.63;;
63965;SDS011;50151;52.030;5.350;2023-03-01T14:32:29;7.47;;;3.30;;
63965;SDS011;50151;52.030;5.350;2023-03-01T14:34:59;4.95;;;3.40;;
63965;SDS011;50151;52.030;5.350;2023-03-01T14:37:33;5.40;;;3.58;;
63965;SDS011;50151;52.030;5.350;2023-03-01T14:42:30;8.70;;;3.42;;
63965;SDS011;50151;52.030;5.350;2023-03-01T14:45:02;6.32;;;3.78;;
63965;SDS011;50151;52.030;5.350;2023-03-01T14:47:32;6.88;;;3.75;;
63965;SDS011;50151;52.030;5.350;2023-03-01T14:50:02;5.72;;;3.20;;
63965;SDS011;50151;52.030;5.350;2023-03-01T14:52:36;5.50;;;3.40;;
63965;SDS011;50151;52.030;5.350;2023-03-01T14:55:13;4.30;;;2.78;;
63965;SDS011;50151;52.030;5.350;2023-03-01T14:57:48;9.27;;;3.90;;
63965;SDS011;50151;52.030;5.350;2023-03-01T15:00:17;9.23;;;3.75;;
63965;SDS011;50151;52.030;5.350;2023-03-01T15:02:47;14.55;;;10.30;;
63965;SDS011;50151;52.030;5.350;2023-03-01T15:05:25;5.97;;;4.00;;
63965;SDS011;50151;52.030;5.350;2023-03-01T15:07:59;6.13;;;3.53;;
63965;SDS011;50151;52.030;5.350;2023-03-01T15:10:29;8.10;;;3.70;;
63965;SDS011;50151;52.030;5.350;2023-03-01T15:13:10;5.38;;;3.80;;
63965;SDS011;50151;52.030;5.350;2023-03-01T15:15:38;7.72;;;4.05;;
63965;SDS011;50151;52.030;5.350;2023-03-01T15:20:44;5.20;;;3.40;;
63965;SDS011;50151;52.030;5.350;2023-03-01T15:23:18;5.32;;;3.40;;
63965;SDS011;50151;52.030;5.350;2023-03-01T15:25:53;5.30;;;3.53;;
63965;SDS011;50151;52.030;5.350;2023-03-01T15:28:25;6.78;;;3.67;;
63965;SDS011;50151;52.030;5.350;2023-03-01T15:31:14;7.68;;;3.63;;
63965;SDS011;50151;52.030;5.350;2023-03-01T15:33:50;7.88;;;3.67;;
63965;SDS011;50151;52.030;5.350;2023-03-01T15:36:36;4.63;;;3.40;;
63965;SDS011;50151;52.030;5.350;2023-03-01T15:39:04;6.60;;;3.72;;
63965;SDS011;50151;52.030;5.350;2023-03-01T15:41:50;6.72;;;3.78;;
63965;SDS011;50151;52.030;5.350;2023-03-01T15:44:17;6.78;;;3.13;;
63965;SDS011;50151;52.030;5.350;2023-03-01T15:47:21;5.85;;;3.67;;
63965;SDS011;50151;52.030;5.350;2023-03-01T15:49:51;7.10;;;3.20;;
63965;SDS011;50151;52.030;5.350;2023-03-01T15:52:55;5.65;;;3.55;;
63965;SDS011;50151;52.030;5.350;2023-03-01T15:55:21;7.13;;;3.30;;
63965;SDS011;50151;52.030;5.350;2023-03-01T15:57:50;4.97;;;3.03;;
63965;SDS011;50151;52.030;5.350;2023-03-01T16:00:44;6.55;;;3.03;;
63965;SDS011;50151;52.030;5.350;2023-03-01T16:03:26;5.07;;;3.30;;
63965;SDS011;50151;52.030;5.350;2023-03-01T16:05:53;5.07;;;3.70;;
63965;SDS011;50151;52.030;5.350;2023-03-01T16:08:19;5.15;;;3.35;;
63965;SDS011;50151;52.030;5.350;2023-03-01T16:10:46;4.65;;;3.50;;
63965;SDS011;50151;52.030;5.350;2023-03-01T16:13:16;5.28;;;2.95;;
63965;SDS011;50151;52.030;5.350;2023-03-01T16:15:43;10.02;;;3.67;;
63965;SDS011;50151;52.030;5.350;2023-03-01T16:18:10;5.15;;;3.55;;
63965;SDS011;50151;52.030;5.350;2023-03-01T16:20:37;4.32;;;3.17;;
63965;SDS011;50151;52.030;5.350;2023-03-01T16:23:05;5.43;;;3.50;;
63965;SDS011;50151;52.030;5.350;2023-03-01T16:25:33;6.57;;;3.40;;
63965;SDS011;50151;52.030;5.350;2023-03-01T16:28:01;4.28;;;3.03;;
63965;SDS011;50151;52.030;5.350;2023-03-01T16:30:34;6.28;;;3.50;;
63965;SDS011;50151;52.030;5.350;2023-03-01T16:33:02;7.07;;;3.75;;
63965;SDS011;50151;52.030;5.350;2023-03-01T16:35:49;6.93;;;3.42;;
63965;SDS011;50151;52.030;5.350;2023-03-01T16:38:16;5.07;;;3.45;;
63965;SDS011;50151;52.030;5.350;2023-03-01T16:40:46;4.50;;;3.40;;
63965;SDS011;50151;52.030;5.350;2023-03-01T16:43:15;6.03;;;3.55;;
63965;SDS011;50151;52.030;5.350;2023-03-01T16:45:42;6.47;;;3.53;;
63965;SDS011;50151;52.030;5.350;2023-03-01T16:48:11;6.65;;;3.75;;
63965;SDS011;50151;52.030;5.350;2023-03-01T16:50:38;5.93;;;3.22;;
63965;SDS011;50151;52.030;5.350;2023-03-01T16:53:05;5.55;;;4.03;;
63965;SDS011;50151;52.030;5.350;2023-03-01T16:55:32;5.35;;;3.63;;
63965;SDS011;50151;52.030;5.350;2023-03-01T16:57:59;6.35;;;3.85;;
63965;SDS011;50151;52.030;5.350;2023-03-01T17:00:26;6.25;;;3.53;;
63965;SDS011;50151;52.030;5.350;2023-03-01T17:02:53;5.40;;;3.83;;
63965;SDS011;50151;52.030;5.350;2023-03-01T17:05:20;5.22;;;3.60;;
63965;SDS011;50151;52.030;5.350;2023-03-01T17:07:49;6.38;;;4.03;;
63965;SDS011;50151;52.030;5.350;2023-03-01T17:10:17;5.68;;;3.80;;
63965;SDS011;50151;52.030;5.350;2023-03-01T17:12:43;5.00;;;3.45;;
63965;SDS011;50151;52.030;5.350;2023-03-01T17:15:10;6.50;;;3.97;;
63965;SDS011;50151;52.030;5.350;2023-03-01T17:17:38;6.03;;;3.78;;